sensor_id;sensor_type;location;lat;lon;timestamp;pressure;altitude;pressure_sealevel;temperature;humidity
13867;BME280;7003;46.982;15.248;2022-07-19T00:00:31;97879.13;;;16.65;100.00
13867;BME280;7003;46.982;15.248;2022-07-19T00:02:59;97885.84;;;16.59;100.00
13867;BME280;7003;46.982;15.248;2022-07-19T00:05:29;97879.91;;;16.65;100.00
13867;BME280;7003;46.982;15.248;2022-07-19T00:07:56;97883.25;;;16.46;100.00
13867;BME280;7003;46.982;15.248;2022-07-19T00:10:25;97880.03;;;16.41;100.00
13867;BME280;7003;46.982;15.248;2022-07-19T00:12:52;97874.50;;;16.49;100.00
13867;BME280;7003;46.982;15.248;2022-07-19T00:15:21;97870.50;;;16.59;100.00
13867;BME280;7003;46.982;15.248;2022-07-19T00:17:49;97875.53;;;16.45;100.00
13867;BME280;7003;46.982;15.248;2022-07-19T00:20:20;97872.56;;;16.34;100.00
13867;BME280;7003;46.982;15.248;2022-07-19T00:22:47;97869.09;;;16.34;100.00
13867;BME280;7003;46.982;15.248;2022-07-19T00:25:17;97872.34;;;16.39;100.00
13867;BME280;7003;46.982;15.248;2022-07-19T00:27:48;97874.41;;;16.30;100.00
13867;BME280;7003;46.982;15.248;2022-07-19T00:30:15;97870.59;;;16.31;100.00
13867;BME280;7003;46.982;15.248;2022-07-19T00:32:42;97874.97;;;16.08;100.00
13867;BME280;7003;46.982;15.248;2022-07-19T00:35:10;97872.28;;;16.08;100.00
13867;BME280;7003;46.982;15.248;2022-07-19T00:37:39;97867.72;;;16.24;100.00
13867;BME280;7003;46.982;15.248;2022-07-19T00:40:10;97875.81;;;16.12;100.00
13867;BME280;7003;46.982;15.248;2022-07-19T00:42:37;97868.38;;;16.05;100.00
13867;BME280;7003;46.982;15.248;2022-07-19T00:45:07;97864.66;;;16.10;100.00
13867;BME280;7003;46.982;15.248;2022-07-19T00:47:37;97866.91;;;16.08;100.00
13867;BME280;7003;46.982;15.248;2022-07-19T00:50:05;97870.13;;;16.13;100.00
13867;BME280;7003;46.982;15.248;2022-07-19T00:52:35;97878.13;;;16.26;100.00
13867;BME280;7003;46.982;15.248;2022-07-19T00:55:07;97874.84;;;16.04;100.00
13867;BME280;7003;46.982;15.248;2022-07-19T00:57:36;97870.41;;;15.96;100.00
13867;BME280;7003;46.982;15.248;2022-07-19T01:00:07;97884.94;;;15.67;100.00
13867;BME280;7003;46.982;15.248;2022-07-19T01:02:36;97874.53;;;15.78;100.00
13867;BME280;7003;46.982;15.248;2022-07-19T01:05:08;97876.84;;;15.79;100.00
13867;BME280;7003;46.982;15.248;2022-07-19T01:07:39;97880.34;;;15.68;100.00
13867;BME280;7003;46.982;15.248;2022-07-19T01:10:09;97873.75;;;15.77;100.00
13867;BME280;7003;46.982;15.248;2022-07-19T01:12:37;97872.97;;;15.77;100.00
13867;BME280;7003;46.982;15.248;2022-07-19T01:15:14;97871.00;;;15.90;100.00
13867;BME280;7003;46.982;15.248;2022-07-19T01:17:42;97873.03;;;15.81;100.00
13867;BME280;7003;46.982;15.248;2022-07-19T01:20:10;97868.91;;;15.83;100.00
13867;BME280;7003;46.982;15.248;2022-07-19T01:22:39;97869.25;;;15.82;100.00
13867;BME280;7003;46.982;15.248;2022-07-19T01:25:10;97864.00;;;15.73;100.00
13867;BME280;7003;46.982;15.248;2022-07-19T01:27:38;97866.38;;;15.74;100.00
13867;BME280;7003;46.982;15.248;2022-07-19T01:30:12;97861.28;;;15.45;100.00
13867;BME280;7003;46.982;15.248;2022-07-19T01:32:40;97862.94;;;15.50;100.00
13867;BME280;7003;46.982;15.248;2022-07-19T01:35:09;97866.44;;;15.38;100.00
13867;BME280;7003;46.982;15.248;2022-07-19T01:37:41;97861.94;;;15.42;100.00
13867;BME280;7003;46.982;15.248;2022-07-19T01:40:12;97862.88;;;15.22;100.00
13867;BME280;7003;46.982;15.248;2022-07-19T01:42:44;97859.97;;;15.27;100.00
13867;BME280;7003;46.982;15.248;2022-07-19T01:45:13;97864.22;;;15.28;100.00
13867;BME280;7003;46.982;15.248;2022-07-19T01:47:43;97861.09;;;15.26;100.00
13867;BME280;7003;46.982;15.248;2022-07-19T01:50:13;97863.44;;;15.27;100.00
13867;BME280;7003;46.982;15.248;2022-07-19T01:52:44;97853.94;;;15.30;100.00
13867;BME280;7003;46.982;15.248;2022-07-19T01:55:14;97864.88;;;15.37;100.00
13867;BME280;7003;46.982;15.248;2022-07-19T01:57:41;97859.72;;;15.44;100.00
13867;BME280;7003;46.982;15.248;2022-07-19T02:00:10;97859.47;;;15.49;100.00
13867;BME280;7003;46.982;15.248;2022-07-19T02:02:38;97857.94;;;15.48;100.00
13867;BME280;7003;46.982;15.248;2022-07-19T02:05:05;97858.53;;;15.29;100.00
13867;BME280;7003;46.982;15.248;2022-07-19T02:07:34;97862.47;;;15.08;100.00
13867;BME280;7003;46.982;15.248;2022-07-19T02:10:03;97860.66;;;14.87;100.00
13867;BME280;7003;46.982;15.248;2022-07-19T02:12:32;97862.25;;;14.76;100.00
13867;BME280;7003;46.982;15.248;2022-07-19T02:14:59;97857.13;;;14.83;100.00
13867;BME280;7003;46.982;15.248;2022-07-19T02:17:29;97854.66;;;14.90;100.00
13867;BME280;7003;46.982;15.248;2022-07-19T02:19:58;97854.19;;;15.13;100.00
13867;BME280;7003;46.982;15.248;2022-07-19T02:22:28;97857.69;;;15.01;100.00
13867;BME280;7003;46.982;15.248;2022-07-19T02:24:57;97854.31;;;14.92;100.00
13867;BME280;7003;46.982;15.248;2022-07-19T02:27:26;97856.09;;;14.76;100.00
13867;BME280;7003;46.982;15.248;2022-07-19T02:29:54;97857.44;;;14.70;100.00
13867;BME280;7003;46.982;15.248;2022-07-19T02:32:23;97852.19;;;14.61;100.00
13867;BME280;7003;46.982;15.248;2022-07-19T02:34:51;97851.97;;;14.66;100.00
13867;BME280;7003;46.982;15.248;2022-07-19T02:37:18;97850.31;;;14.61;100.00
13867;BME280;7003;46.982;15.248;2022-07-19T02:39:46;97855.34;;;14.63;100.00
13867;BME280;7003;46.982;15.248;2022-07-19T02:42:13;97859.13;;;14.74;100.00
13867;BME280;7003;46.982;15.248;2022-07-19T02:44:43;97855.06;;;14.44;100.00
13867;BME280;7003;46.982;15.248;2022-07-19T02:47:10;97855.53;;;14.58;100.00
13867;BME280;7003;46.982;15.248;2022-07-19T02:49:39;97857.09;;;14.47;100.00
13867;BME280;7003;46.982;15.248;2022-07-19T02:52:07;97855.97;;;14.48;100.00
13867;BME280;7003;46.982;15.248;2022-07-19T02:54:37;97862.44;;;14.47;100.00
13867;BME280;7003;46.982;15.248;2022-07-19T02:57:08;97859.38;;;14.36;100.00
13867;BME280;7003;46.982;15.248;2022-07-19T02:59:40;97856.63;;;14.45;100.00
13867;BME280;7003;46.982;15.248;2022-07-19T03:02:14;97857.97;;;14.39;100.00
13867;BME280;7003;46.982;15.248;2022-07-19T03:04:45;97853.66;;;14.25;100.00
13867;BME280;7003;46.982;15.248;2022-07-19T03:07:20;97855.69;;;14.29;100.00
13867;BME280;7003;46.982;15.248;2022-07-19T03:09:50;97849.88;;;14.26;100.00
13867;BME280;7003;46.982;15.248;2022-07-19T03:12:24;97858.06;;;14.09;100.00
13867;BME280;7003;46.982;15.248;2022-07-19T03:14:58;97856.28;;;14.01;100.00
13867;BME280;7003;46.982;15.248;2022-07-19T03:17:33;97866.78;;;14.06;100.00
13867;BME280;7003;46.982;15.248;2022-07-19T03:20:04;97859.28;;;14.00;100.00
13867;BME280;7003;46.982;15.248;2022-07-19T03:22:36;97867.09;;;14.05;100.00
13867;BME280;7003;46.982;15.248;2022-07-19T03:25:09;97869.22;;;14.11;100.00
13867;BME280;7003;46.982;15.248;2022-07-19T03:27:42;97865.66;;;14.07;100.00
13867;BME280;7003;46.982;15.248;2022-07-19T03:30:15;97873.16;;;14.14;100.00
13867;BME280;7003;46.982;15.248;2022-07-19T03:32:48;97874.63;;;14.23;100.00
13867;BME280;7003;46.982;15.248;2022-07-19T03:35:20;97873.69;;;14.07;100.00
13867;BME280;7003;46.982;15.248;2022-07-19T03:37:54;97871.50;;;13.88;100.00
13867;BME280;7003;46.982;15.248;2022-07-19T03:40:26;97865.66;;;14.07;100.00
13867;BME280;7003;46.982;15.248;2022-07-19T03:42:57;97868.88;;;14.01;100.00
13867;BME280;7003;46.982;15.248;2022-07-19T03:45:28;97870.06;;;13.91;100.00
13867;BME280;7003;46.982;15.248;2022-07-19T03:48:05;97868.94;;;13.92;100.00
13867;BME280;7003;46.982;15.248;2022-07-19T03:50:36;97878.72;;;14.09;100.00
13867;BME280;7003;46.982;15.248;2022-07-19T03:53:08;97876.78;;;14.09;100.00
13867;BME280;7003;46.982;15.248;2022-07-19T03:55:42;97877.31;;;14.23;100.00
13867;BME280;7003;46.982;15.248;2022-07-19T03:58:14;97877.22;;;14.32;100.00
13867;BME280;7003;46.982;15.248;2022-07-19T04:00:47;97879.63;;;14.46;100.00
13867;BME280;7003;46.982;15.248;2022-07-19T04:03:21;97884.19;;;14.45;100.00
13867;BME280;7003;46.982;15.248;2022-07-19T04:05:55;97875.81;;;14.47;100.00
13867;BME280;7003;46.982;15.248;2022-07-19T04:08:27;97877.19;;;14.65;100.00
13867;BME280;7003;46.982;15.248;2022-07-19T04:11:01;97882.44;;;14.61;100.00
13867;BME280;7003;46.982;15.248;2022-07-19T04:13:34;97880.09;;;14.60;100.00
13867;BME280;7003;46.982;15.248;2022-07-19T04:16:05;97883.00;;;14.67;100.00
13867;BME280;7003;46.982;15.248;2022-07-19T04:18:38;97883.44;;;14.69;100.00
13867;BME280;7003;46.982;15.248;2022-07-19T04:21:11;97887.00;;;14.73;100.00
13867;BME280;7003;46.982;15.248;2022-07-19T04:23:42;97890.03;;;14.84;100.00
13867;BME280;7003;46.982;15.248;2022-07-19T04:26:17;97888.81;;;14.93;100.00
13867;BME280;7003;46.982;15.248;2022-07-19T04:28:48;97889.59;;;14.94;100.00
13867;BME280;7003;46.982;15.248;2022-07-19T04:31:19;97889.25;;;14.95;100.00
13867;BME280;7003;46.982;15.248;2022-07-19T04:33:52;97883.69;;;15.00;100.00
13867;BME280;7003;46.982;15.248;2022-07-19T04:36:25;97891.47;;;15.06;100.00
13867;BME280;7003;46.982;15.248;2022-07-19T04:38:54;97887.66;;;15.19;100.00
13867;BME280;7003;46.982;15.248;2022-07-19T04:41:23;97896.25;;;15.36;100.00
13867;BME280;7003;46.982;15.248;2022-07-19T04:43:54;97893.81;;;15.31;100.00
13867;BME280;7003;46.982;15.248;2022-07-19T04:46:23;97887.84;;;15.50;100.00
13867;BME280;7003;46.982;15.248;2022-07-19T04:48:52;97893.53;;;15.49;100.00
13867;BME280;7003;46.982;15.248;2022-07-19T04:51:20;97892.25;;;15.55;100.00
13867;BME280;7003;46.982;15.248;2022-07-19T04:53:49;97896.97;;;15.73;100.00
13867;BME280;7003;46.982;15.248;2022-07-19T04:56:17;97892.13;;;15.91;100.00
13867;BME280;7003;46.982;15.248;2022-07-19T04:58:45;97890.31;;;16.23;100.00
13867;BME280;7003;46.982;15.248;2022-07-19T05:01:13;97885.13;;;16.30;100.00
13867;BME280;7003;46.982;15.248;2022-07-19T05:03:42;97887.88;;;16.77;100.00
13867;BME280;7003;46.982;15.248;2022-07-19T05:06:11;97888.81;;;17.16;100.00
13867;BME280;7003;46.982;15.248;2022-07-19T05:08:40;97887.09;;;17.43;100.00
13867;BME280;7003;46.982;15.248;2022-07-19T05:11:08;97885.31;;;17.66;100.00
13867;BME280;7003;46.982;15.248;2022-07-19T05:13:36;97882.75;;;18.12;100.00
13867;BME280;7003;46.982;15.248;2022-07-19T05:16:06;97885.78;;;18.30;100.00
13867;BME280;7003;46.982;15.248;2022-07-19T05:18:36;97891.28;;;18.56;100.00
13867;BME280;7003;46.982;15.248;2022-07-19T05:21:06;97887.75;;;18.75;100.00
13867;BME280;7003;46.982;15.248;2022-07-19T05:23:35;97886.66;;;19.29;100.00
13867;BME280;7003;46.982;15.248;2022-07-19T05:26:05;97883.38;;;19.69;100.00
13867;BME280;7003;46.982;15.248;2022-07-19T05:28:32;97882.69;;;20.09;100.00
13867;BME280;7003;46.982;15.248;2022-07-19T05:31:03;97878.97;;;20.57;100.00
13867;BME280;7003;46.982;15.248;2022-07-19T05:33:31;97874.13;;;20.77;100.00
13867;BME280;7003;46.982;15.248;2022-07-19T05:36:01;97869.31;;;21.04;100.00
13867;BME280;7003;46.982;15.248;2022-07-19T05:38:29;97870.38;;;21.43;100.00
13867;BME280;7003;46.982;15.248;2022-07-19T05:41:02;97868.53;;;21.65;100.00
13867;BME280;7003;46.982;15.248;2022-07-19T05:43:29;97865.88;;;21.76;100.00
13867;BME280;7003;46.982;15.248;2022-07-19T05:45:57;97864.06;;;21.98;100.00
13867;BME280;7003;46.982;15.248;2022-07-19T05:48:27;97869.94;;;22.21;100.00
13867;BME280;7003;46.982;15.248;2022-07-19T05:50:58;97859.91;;;22.53;100.00
13867;BME280;7003;46.982;15.248;2022-07-19T05:53:26;97868.44;;;22.70;100.00
13867;BME280;7003;46.982;15.248;2022-07-19T05:55:54;97871.97;;;22.91;100.00
13867;BME280;7003;46.982;15.248;2022-07-19T05:58:23;97868.09;;;23.03;100.00
13867;BME280;7003;46.982;15.248;2022-07-19T06:00:54;97870.03;;;22.88;100.00
13867;BME280;7003;46.982;15.248;2022-07-19T06:03:41;97862.25;;;22.73;100.00
13867;BME280;7003;46.982;15.248;2022-07-19T06:06:11;97871.56;;;22.79;100.00
13867;BME280;7003;46.982;15.248;2022-07-19T06:08:42;97868.50;;;22.84;100.00
13867;BME280;7003;46.982;15.248;2022-07-19T06:11:12;97873.13;;;22.87;100.00
13867;BME280;7003;46.982;15.248;2022-07-19T06:13:46;97866.13;;;22.93;100.00
13867;BME280;7003;46.982;15.248;2022-07-19T06:16:13;97868.84;;;23.00;100.00
13867;BME280;7003;46.982;15.248;2022-07-19T06:18:44;97870.38;;;23.19;100.00
13867;BME280;7003;46.982;15.248;2022-07-19T06:21:16;97873.09;;;23.15;100.00
13867;BME280;7003;46.982;15.248;2022-07-19T06:23:45;97871.16;;;23.26;100.00
13867;BME280;7003;46.982;15.248;2022-07-19T06:26:12;97860.63;;;23.57;100.00
13867;BME280;7003;46.982;15.248;2022-07-19T06:28:42;97868.38;;;23.65;100.00
13867;BME280;7003;46.982;15.248;2022-07-19T06:31:13;97869.09;;;23.80;100.00
13867;BME280;7003;46.982;15.248;2022-07-19T06:33:43;97865.59;;;23.83;100.00
13867;BME280;7003;46.982;15.248;2022-07-19T06:36:14;97868.25;;;23.97;100.00
13867;BME280;7003;46.982;15.248;2022-07-19T06:38:44;97865.91;;;23.96;100.00
13867;BME280;7003;46.982;15.248;2022-07-19T06:41:16;97871.25;;;24.13;100.00
13867;BME280;7003;46.982;15.248;2022-07-19T06:43:43;97869.66;;;24.27;100.00
13867;BME280;7003;46.982;15.248;2022-07-19T06:46:16;97866.91;;;24.34;99.78
13867;BME280;7003;46.982;15.248;2022-07-19T06:48:46;97864.50;;;24.46;98.41
13867;BME280;7003;46.982;15.248;2022-07-19T06:51:14;97859.47;;;24.45;100.00
13867;BME280;7003;46.982;15.248;2022-07-19T06:53:43;97864.00;;;24.59;100.00
13867;BME280;7003;46.982;15.248;2022-07-19T06:56:11;97867.41;;;24.73;92.19
13867;BME280;7003;46.982;15.248;2022-07-19T06:58:41;97858.44;;;24.76;92.62
13867;BME280;7003;46.982;15.248;2022-07-19T07:01:11;97865.34;;;24.91;96.66
13867;BME280;7003;46.982;15.248;2022-07-19T07:03:40;97862.28;;;24.82;87.74
13867;BME280;7003;46.982;15.248;2022-07-19T07:06:08;97857.19;;;24.91;75.81
13867;BME280;7003;46.982;15.248;2022-07-19T07:08:39;97853.56;;;25.02;77.70
13867;BME280;7003;46.982;15.248;2022-07-19T07:11:09;97856.53;;;25.18;75.04
13867;BME280;7003;46.982;15.248;2022-07-19T07:13:39;97855.75;;;25.21;72.97
13867;BME280;7003;46.982;15.248;2022-07-19T07:16:07;97855.97;;;25.37;74.33
13867;BME280;7003;46.982;15.248;2022-07-19T07:18:37;97854.72;;;25.45;79.89
13867;BME280;7003;46.982;15.248;2022-07-19T07:21:08;97856.59;;;25.86;71.93
13867;BME280;7003;46.982;15.248;2022-07-19T07:23:36;97857.72;;;26.19;73.33
13867;BME280;7003;46.982;15.248;2022-07-19T07:26:04;97855.06;;;26.42;69.58
13867;BME280;7003;46.982;15.248;2022-07-19T07:28:34;97852.38;;;26.65;61.47
13867;BME280;7003;46.982;15.248;2022-07-19T07:31:04;97845.56;;;26.77;59.26
13867;BME280;7003;46.982;15.248;2022-07-19T07:33:34;97854.53;;;27.24;59.37
13867;BME280;7003;46.982;15.248;2022-07-19T07:36:02;97849.63;;;27.35;58.92
13867;BME280;7003;46.982;15.248;2022-07-19T07:38:31;97850.59;;;27.68;56.39
13867;BME280;7003;46.982;15.248;2022-07-19T07:41:02;97843.56;;;27.67;51.22
13867;BME280;7003;46.982;15.248;2022-07-19T07:43:33;97843.94;;;27.26;50.71
13867;BME280;7003;46.982;15.248;2022-07-19T07:46:00;97849.44;;;27.46;52.82
13867;BME280;7003;46.982;15.248;2022-07-19T07:48:28;97842.25;;;27.75;50.43
13867;BME280;7003;46.982;15.248;2022-07-19T07:50:56;97845.75;;;28.12;49.30
13867;BME280;7003;46.982;15.248;2022-07-19T07:53:23;97845.50;;;28.26;49.99
13867;BME280;7003;46.982;15.248;2022-07-19T07:55:52;97840.56;;;28.53;49.31
13867;BME280;7003;46.982;15.248;2022-07-19T07:58:19;97835.75;;;28.73;47.47
13867;BME280;7003;46.982;15.248;2022-07-19T08:00:50;97831.91;;;28.71;48.17
13867;BME280;7003;46.982;15.248;2022-07-19T08:03:21;97830.44;;;28.66;48.60
13867;BME280;7003;46.982;15.248;2022-07-19T08:05:48;97831.50;;;28.89;45.99
13867;BME280;7003;46.982;15.248;2022-07-19T08:08:16;97828.91;;;28.98;47.03
13867;BME280;7003;46.982;15.248;2022-07-19T08:10:44;97824.66;;;29.42;44.88
13867;BME280;7003;46.982;15.248;2022-07-19T08:13:16;97822.78;;;28.78;45.97
13867;BME280;7003;46.982;15.248;2022-07-19T08:15:45;97825.72;;;29.16;46.68
13867;BME280;7003;46.982;15.248;2022-07-19T08:18:16;97825.16;;;29.37;43.38
13867;BME280;7003;46.982;15.248;2022-07-19T08:20:44;97833.53;;;28.68;43.20
13867;BME280;7003;46.982;15.248;2022-07-19T08:23:11;97829.59;;;29.02;43.65
13867;BME280;7003;46.982;15.248;2022-07-19T08:25:39;97834.97;;;29.05;42.59
13867;BME280;7003;46.982;15.248;2022-07-19T08:28:09;97835.69;;;28.09;43.35
13867;BME280;7003;46.982;15.248;2022-07-19T08:30:40;97833.22;;;27.78;43.00
13867;BME280;7003;46.982;15.248;2022-07-19T08:33:11;97830.75;;;27.01;45.94
13867;BME280;7003;46.982;15.248;2022-07-19T08:35:38;97824.09;;;26.79;43.50
13867;BME280;7003;46.982;15.248;2022-07-19T08:38:08;97821.91;;;27.37;45.53
13867;BME280;7003;46.982;15.248;2022-07-19T08:40:37;97827.22;;;28.39;42.84
13867;BME280;7003;46.982;15.248;2022-07-19T08:43:11;97814.31;;;28.56;44.44
13867;BME280;7003;46.982;15.248;2022-07-19T08:45:41;97820.88;;;28.06;40.93
13867;BME280;7003;46.982;15.248;2022-07-19T08:48:09;97821.63;;;28.75;42.33
13867;BME280;7003;46.982;15.248;2022-07-19T08:50:40;97823.78;;;27.99;36.98
13867;BME280;7003;46.982;15.248;2022-07-19T08:53:08;97826.53;;;28.51;43.16
13867;BME280;7003;46.982;15.248;2022-07-19T08:55:39;97820.69;;;27.97;38.96
13867;BME280;7003;46.982;15.248;2022-07-19T08:58:09;97826.81;;;27.65;41.74
13867;BME280;7003;46.982;15.248;2022-07-19T09:00:36;97823.25;;;27.68;41.38
13867;BME280;7003;46.982;15.248;2022-07-19T09:03:08;97818.78;;;27.58;37.46
13867;BME280;7003;46.982;15.248;2022-07-19T09:05:38;97824.75;;;28.09;42.55
13867;BME280;7003;46.982;15.248;2022-07-19T09:08:08;97815.25;;;28.82;39.81
13867;BME280;7003;46.982;15.248;2022-07-19T09:10:39;97818.91;;;28.59;38.23
13867;BME280;7003;46.982;15.248;2022-07-19T09:13:09;97814.56;;;28.45;38.81
13867;BME280;7003;46.982;15.248;2022-07-19T09:15:39;97811.41;;;28.95;41.49
13867;BME280;7003;46.982;15.248;2022-07-19T09:18:12;97808.91;;;29.01;35.79
13867;BME280;7003;46.982;15.248;2022-07-19T09:20:42;97814.72;;;28.70;37.50
13867;BME280;7003;46.982;15.248;2022-07-19T09:23:12;97813.88;;;28.25;36.30
13867;BME280;7003;46.982;15.248;2022-07-19T09:25:45;97817.63;;;28.63;39.31
13867;BME280;7003;46.982;15.248;2022-07-19T09:28:18;97806.53;;;28.87;39.04
13867;BME280;7003;46.982;15.248;2022-07-19T09:30:51;97816.97;;;28.76;38.02
13867;BME280;7003;46.982;15.248;2022-07-19T09:33:25;97819.50;;;28.66;37.15
13867;BME280;7003;46.982;15.248;2022-07-19T09:35:59;97809.56;;;29.05;36.45
13867;BME280;7003;46.982;15.248;2022-07-19T09:38:34;97817.03;;;28.56;38.56
13867;BME280;7003;46.982;15.248;2022-07-19T09:41:10;97814.56;;;28.78;38.11
13867;BME280;7003;46.982;15.248;2022-07-19T09:43:52;97814.78;;;28.34;38.16
13867;BME280;7003;46.982;15.248;2022-07-19T09:46:28;97808.22;;;27.96;39.36
13867;BME280;7003;46.982;15.248;2022-07-19T09:49:05;97808.22;;;28.64;39.73
13867;BME280;7003;46.982;15.248;2022-07-19T09:51:34;97799.84;;;28.71;37.49
13867;BME280;7003;46.982;15.248;2022-07-19T09:54:06;97786.06;;;29.20;39.05
13867;BME280;7003;46.982;15.248;2022-07-19T09:56:36;97785.63;;;30.05;38.67
13867;BME280;7003;46.982;15.248;2022-07-19T09:59:07;97788.56;;;29.43;36.95
13867;BME280;7003;46.982;15.248;2022-07-19T10:01:36;97793.50;;;28.75;36.54
13867;BME280;7003;46.982;15.248;2022-07-19T10:04:07;97790.00;;;28.58;37.11
13867;BME280;7003;46.982;15.248;2022-07-19T10:06:36;97785.09;;;28.98;38.01
13867;BME280;7003;46.982;15.248;2022-07-19T10:09:08;97781.41;;;29.75;36.94
13867;BME280;7003;46.982;15.248;2022-07-19T10:11:37;97782.78;;;30.08;33.53
13867;BME280;7003;46.982;15.248;2022-07-19T10:14:05;97776.31;;;30.02;35.77
13867;BME280;7003;46.982;15.248;2022-07-19T10:16:42;97786.31;;;29.67;36.08
13867;BME280;7003;46.982;15.248;2022-07-19T10:19:16;97773.63;;;29.86;34.89
13867;BME280;7003;46.982;15.248;2022-07-19T10:21:45;97774.50;;;30.46;34.42
13867;BME280;7003;46.982;15.248;2022-07-19T10:24:45;97778.72;;;30.26;34.37
13867;BME280;7003;46.982;15.248;2022-07-19T10:27:16;97779.78;;;30.53;34.82
13867;BME280;7003;46.982;15.248;2022-07-19T10:29:44;97776.72;;;30.64;33.35
13867;BME280;7003;46.982;15.248;2022-07-19T10:32:13;97777.28;;;31.28;32.73
13867;BME280;7003;46.982;15.248;2022-07-19T10:34:43;97767.28;;;31.65;33.04
13867;BME280;7003;46.982;15.248;2022-07-19T10:37:13;97770.84;;;32.05;29.36
13867;BME280;7003;46.982;15.248;2022-07-19T10:39:41;97764.56;;;30.87;29.23
13867;BME280;7003;46.982;15.248;2022-07-19T10:42:13;97770.34;;;31.23;30.90
13867;BME280;7003;46.982;15.248;2022-07-19T10:45:14;97767.56;;;31.89;29.96
13867;BME280;7003;46.982;15.248;2022-07-19T10:47:58;97768.38;;;31.67;29.18
13867;BME280;7003;46.982;15.248;2022-07-19T10:50:52;97764.59;;;32.14;30.25
13867;BME280;7003;46.982;15.248;2022-07-19T10:54:02;97764.44;;;32.58;29.24
13867;BME280;7003;46.982;15.248;2022-07-19T10:56:39;97764.47;;;32.76;30.16
13867;BME280;7003;46.982;15.248;2022-07-19T10:59:11;97759.25;;;32.10;28.99
13867;BME280;7003;46.982;15.248;2022-07-19T11:01:54;97762.81;;;31.15;29.55
13867;BME280;7003;46.982;15.248;2022-07-19T11:04:30;97749.53;;;31.88;31.24
13867;BME280;7003;46.982;15.248;2022-07-19T11:07:13;97758.13;;;31.99;28.06
13867;BME280;7003;46.982;15.248;2022-07-19T11:09:43;97749.72;;;31.19;29.81
13867;BME280;7003;46.982;15.248;2022-07-19T11:12:28;97762.81;;;31.36;30.94
13867;BME280;7003;46.982;15.248;2022-07-19T11:14:59;97756.50;;;32.10;31.34
13867;BME280;7003;46.982;15.248;2022-07-19T11:17:29;97759.25;;;32.60;30.61
13867;BME280;7003;46.982;15.248;2022-07-19T11:20:08;97753.78;;;32.87;30.70
13867;BME280;7003;46.982;15.248;2022-07-19T11:22:42;97754.56;;;32.97;28.51
13867;BME280;7003;46.982;15.248;2022-07-19T11:25:11;97749.63;;;32.92;29.55
13867;BME280;7003;46.982;15.248;2022-07-19T11:27:42;97760.25;;;31.64;28.47
13867;BME280;7003;46.982;15.248;2022-07-19T11:30:11;97757.31;;;30.20;30.78
13867;BME280;7003;46.982;15.248;2022-07-19T11:32:40;97749.75;;;30.25;30.51
13867;BME280;7003;46.982;15.248;2022-07-19T11:35:10;97745.56;;;30.33;30.69
13867;BME280;7003;46.982;15.248;2022-07-19T11:37:42;97746.25;;;29.99;30.65
13867;BME280;7003;46.982;15.248;2022-07-19T11:40:11;97744.13;;;30.41;33.88
13867;BME280;7003;46.982;15.248;2022-07-19T11:42:44;97737.94;;;30.62;31.25
13867;BME280;7003;46.982;15.248;2022-07-19T11:45:15;97739.88;;;31.09;32.67
13867;BME280;7003;46.982;15.248;2022-07-19T11:47:45;97736.59;;;30.67;31.38
13867;BME280;7003;46.982;15.248;2022-07-19T11:50:17;97726.53;;;30.51;30.77
13867;BME280;7003;46.982;15.248;2022-07-19T11:52:50;97726.81;;;31.22;34.16
13867;BME280;7003;46.982;15.248;2022-07-19T11:55:21;97726.31;;;31.89;31.74
13867;BME280;7003;46.982;15.248;2022-07-19T11:57:49;97715.47;;;32.53;30.34
13867;BME280;7003;46.982;15.248;2022-07-19T12:00:18;97716.06;;;32.47;30.31
13867;BME280;7003;46.982;15.248;2022-07-19T12:02:53;97717.28;;;30.92;31.31
13867;BME280;7003;46.982;15.248;2022-07-19T12:05:22;97713.88;;;31.53;30.78
13867;BME280;7003;46.982;15.248;2022-07-19T12:07:57;97707.44;;;31.47;33.17
13867;BME280;7003;46.982;15.248;2022-07-19T12:10:39;97709.53;;;31.65;30.58
13867;BME280;7003;46.982;15.248;2022-07-19T12:13:11;97704.78;;;31.96;31.22
13867;BME280;7003;46.982;15.248;2022-07-19T12:15:50;97708.31;;;32.06;32.29
13867;BME280;7003;46.982;15.248;2022-07-19T12:18:22;97704.91;;;31.93;31.26
13867;BME280;7003;46.982;15.248;2022-07-19T12:21:20;97703.41;;;32.59;30.38
13867;BME280;7003;46.982;15.248;2022-07-19T12:24:15;97703.38;;;32.50;30.70
13867;BME280;7003;46.982;15.248;2022-07-19T12:26:45;97700.50;;;32.72;32.27
13867;BME280;7003;46.982;15.248;2022-07-19T12:29:24;97700.84;;;31.66;29.55
13867;BME280;7003;46.982;15.248;2022-07-19T12:31:57;97698.53;;;31.12;30.02
13867;BME280;7003;46.982;15.248;2022-07-19T12:34:28;97701.81;;;31.82;32.45
13867;BME280;7003;46.982;15.248;2022-07-19T12:36:56;97699.72;;;31.95;31.26
13867;BME280;7003;46.982;15.248;2022-07-19T12:39:28;97688.84;;;32.49;31.78
13867;BME280;7003;46.982;15.248;2022-07-19T12:41:59;97683.69;;;32.79;30.86
13867;BME280;7003;46.982;15.248;2022-07-19T12:44:27;97680.84;;;32.15;29.72
13867;BME280;7003;46.982;15.248;2022-07-19T12:46:59;97682.13;;;32.69;30.75
13867;BME280;7003;46.982;15.248;2022-07-19T12:49:42;97677.34;;;33.15;29.60
13867;BME280;7003;46.982;15.248;2022-07-19T12:52:10;97679.63;;;33.44;30.06
13867;BME280;7003;46.982;15.248;2022-07-19T12:54:40;97680.25;;;32.20;30.90
13867;BME280;7003;46.982;15.248;2022-07-19T12:57:10;97677.09;;;32.95;29.91
13867;BME280;7003;46.982;15.248;2022-07-19T12:59:40;97675.94;;;33.38;29.65
13867;BME280;7003;46.982;15.248;2022-07-19T13:02:13;97665.44;;;32.27;31.42
13867;BME280;7003;46.982;15.248;2022-07-19T13:04:43;97663.91;;;32.53;31.82
13867;BME280;7003;46.982;15.248;2022-07-19T13:07:12;97668.38;;;32.78;28.78
13867;BME280;7003;46.982;15.248;2022-07-19T13:09:42;97663.69;;;33.30;30.17
13867;BME280;7003;46.982;15.248;2022-07-19T13:12:12;97658.69;;;33.28;30.82
13867;BME280;7003;46.982;15.248;2022-07-19T13:14:40;97649.06;;;32.96;28.00